sensor_id;sensor_type;location;lat;lon;timestamp;temperature;humidity
1948;DHT22;974;52.400;9.818;2022-12-20T00:01:55;6.50;99.90
1948;DHT22;974;52.400;9.818;2022-12-20T00:04:21;6.60;99.90
1948;DHT22;974;52.400;9.818;2022-12-20T00:06:46;6.50;99.90
1948;DHT22;974;52.400;9.818;2022-12-20T00:09:12;6.50;99.90
1948;DHT22;974;52.400;9.818;2022-12-20T00:11:39;6.60;99.90
1948;DHT22;974;52.400;9.818;2022-12-20T00:14:05;6.60;99.90
1948;DHT22;974;52.400;9.818;2022-12-20T00:16:31;6.60;99.90
1948;DHT22;974;52.400;9.818;2022-12-20T00:18:59;6.60;99.90
1948;DHT22;974;52.400;9.818;2022-12-20T00:21:26;6.60;99.90
1948;DHT22;974;52.400;9.818;2022-12-20T00:23:52;6.60;99.90
1948;DHT22;974;52.400;9.818;2022-12-20T00:26:20;6.60;99.90
1948;DHT22;974;52.400;9.818;2022-12-20T00:28:46;6.50;99.90
1948;DHT22;974;52.400;9.818;2022-12-20T00:31:13;6.50;99.90
1948;DHT22;974;52.400;9.818;2022-12-20T00:33:40;6.60;99.90
1948;DHT22;974;52.400;9.818;2022-12-20T00:36:06;6.60;99.90
1948;DHT22;974;52.400;9.818;2022-12-20T00:38:33;6.60;99.90
1948;DHT22;974;52.400;9.818;2022-12-20T00:43:29;6.60;99.90
1948;DHT22;974;52.400;9.818;2022-12-20T00:45:54;6.50;99.90
1948;DHT22;974;52.400;9.818;2022-12-20T00:48:21;6.50;99.90
1948;DHT22;974;52.400;9.818;2022-12-20T00:50:47;6.50;99.90
1948;DHT22;974;52.400;9.818;2022-12-20T00:53:12;6.60;99.90
1948;DHT22;974;52.400;9.818;2022-12-20T00:55:45;6.50;99.90
1948;DHT22;974;52.400;9.818;2022-12-20T00:58:11;6.40;99.90
1948;DHT22;974;52.400;9.818;2022-12-20T01:00:37;6.60;99.90
1948;DHT22;974;52.400;9.818;2022-12-20T01:03:04;6.60;99.90
1948;DHT22;974;52.400;9.818;2022-12-20T01:05:29;6.60;99.90
1948;DHT22;974;52.400;9.818;2022-12-20T01:07:55;6.50;99.90
1948;DHT22;974;52.400;9.818;2022-12-20T01:10:21;6.50;99.90
1948;DHT22;974;52.400;9.818;2022-12-20T01:12:46;6.50;99.90
1948;DHT22;974;52.400;9.818;2022-12-20T01:15:12;6.50;99.90
1948;DHT22;974;52.400;9.818;2022-12-20T01:17:37;6.50;99.90
1948;DHT22;974;52.400;9.818;2022-12-20T01:20:04;6.60;99.90
1948;DHT22;974;52.400;9.818;2022-12-20T01:22:30;6.60;99.90
1948;DHT22;974;52.400;9.818;2022-12-20T01:24:55;6.50;99.90
1948;DHT22;974;52.400;9.818;2022-12-20T01:27:21;6.60;99.90
1948;DHT22;974;52.400;9.818;2022-12-20T01:29:46;6.60;99.90
1948;DHT22;974;52.400;9.818;2022-12-20T01:32:12;6.60;99.90
1948;DHT22;974;52.400;9.818;2022-12-20T01:34:37;6.60;99.90
1948;DHT22;974;52.400;9.818;2022-12-20T01:37:03;6.60;99.90
1948;DHT22;974;52.400;9.818;2022-12-20T01:39:28;6.60;99.90
1948;DHT22;974;52.400;9.818;2022-12-20T01:41:54;6.70;99.90
1948;DHT22;974;52.400;9.818;2022-12-20T01:46:47;6.70;99.90
1948;DHT22;974;52.400;9.818;2022-12-20T01:49:32;6.80;99.90
1948;DHT22;974;52.400;9.818;2022-12-20T01:52:13;6.80;99.90
1948;DHT22;974;52.400;9.818;2022-12-20T01:54:49;6.80;99.90
1948;DHT22;974;52.400;9.818;2022-12-20T01:57:26;6.80;99.90
1948;DHT22;974;52.400;9.818;2022-12-20T01:59:54;6.80;99.90
1948;DHT22;974;52.400;9.818;2022-12-20T02:02:20;6.80;99.90
1948;DHT22;974;52.400;9.818;2022-12-20T02:04:46;6.80;99.90
1948;DHT22;974;52.400;9.818;2022-12-20T02:07:17;6.80;99.90
1948;DHT22;974;52.400;9.818;2022-12-20T02:09:44;6.90;99.90
1948;DHT22;974;52.400;9.818;2022-12-20T02:12:23;6.90;99.90
1948;DHT22;974;52.400;9.818;2022-12-20T02:17:33;7.00;99.90
1948;DHT22;974;52.400;9.818;2022-12-20T02:26:08;7.10;99.90
1948;DHT22;974;52.400;9.818;2022-12-20T02:29:07;7.10;99.90
1948;DHT22;974;52.400;9.818;2022-12-20T02:31:40;7.10;99.90
1948;DHT22;974;52.400;9.818;2022-12-20T02:34:08;7.20;99.90
1948;DHT22;974;52.400;9.818;2022-12-20T02:36:34;7.20;99.90
1948;DHT22;974;52.400;9.818;2022-12-20T02:38:59;7.20;99.90
1948;DHT22;974;52.400;9.818;2022-12-20T02:41:32;7.30;99.90
1948;DHT22;974;52.400;9.818;2022-12-20T02:44:10;7.30;99.90
1948;DHT22;974;52.400;9.818;2022-12-20T02:46:57;7.30;99.90
1948;DHT22;974;52.400;9.818;2022-12-20T02:49:29;7.30;99.90
1948;DHT22;974;52.400;9.818;2022-12-20T02:51:56;7.20;99.90
1948;DHT22;974;52.400;9.818;2022-12-20T02:54:22;7.30;99.90
1948;DHT22;974;52.400;9.818;2022-12-20T02:56:56;7.30;99.90
1948;DHT22;974;52.400;9.818;2022-12-20T02:59:23;7.30;99.90
1948;DHT22;974;52.400;9.818;2022-12-20T03:01:52;7.20;99.90
1948;DHT22;974;52.400;9.818;2022-12-20T03:04:22;7.20;99.90
1948;DHT22;974;52.400;9.818;2022-12-20T03:06:58;7.20;99.90
1948;DHT22;974;52.400;9.818;2022-12-20T03:09:24;7.30;99.90
1948;DHT22;974;52.400;9.818;2022-12-20T03:11:50;7.30;99.90
1948;DHT22;974;52.400;9.818;2022-12-20T03:14:15;7.30;99.90
1948;DHT22;974;52.400;9.818;2022-12-20T03:16:41;7.30;99.90
1948;DHT22;974;52.400;9.818;2022-12-20T03:19:06;7.30;99.90
1948;DHT22;974;52.400;9.818;2022-12-20T03:21:32;7.30;99.90
1948;DHT22;974;52.400;9.818;2022-12-20T03:23:57;7.30;99.90
1948;DHT22;974;52.400;9.818;2022-12-20T03:26:23;7.40;99.90
1948;DHT22;974;52.400;9.818;2022-12-20T03:28:48;7.30;99.90
1948;DHT22;974;52.400;9.818;2022-12-20T03:31:14;7.30;99.90
1948;DHT22;974;52.400;9.818;2022-12-20T03:33:39;7.30;99.90
1948;DHT22;974;52.400;9.818;2022-12-20T03:36:05;7.30;99.90
1948;DHT22;974;52.400;9.818;2022-12-20T03:38:31;7.30;99.90
1948;DHT22;974;52.400;9.818;2022-12-20T03:40:56;7.30;99.90
1948;DHT22;974;52.400;9.818;2022-12-20T03:43:21;7.20;99.90
1948;DHT22;974;52.400;9.818;2022-12-20T03:45:47;7.30;99.90
1948;DHT22;974;52.400;9.818;2022-12-20T03:48:12;7.30;99.90
1948;DHT22;974;52.400;9.818;2022-12-20T03:50:38;7.30;99.90
1948;DHT22;974;52.400;9.818;2022-12-20T03:53:04;7.30;99.90
1948;DHT22;974;52.400;9.818;2022-12-20T03:55:29;7.20;99.90
1948;DHT22;974;52.400;9.818;2022-12-20T03:57:55;7.20;99.90
1948;DHT22;974;52.400;9.818;2022-12-20T04:00:20;7.20;99.90
1948;DHT22;974;52.400;9.818;2022-12-20T04:02:46;7.20;99.90
1948;DHT22;974;52.400;9.818;2022-12-20T04:05:11;7.20;99.90
1948;DHT22;974;52.400;9.818;2022-12-20T04:07:37;7.20;99.90
1948;DHT22;974;52.400;9.818;2022-12-20T04:10:03;7.20;99.90
1948;DHT22;974;52.400;9.818;2022-12-20T04:12:29;7.30;99.90
1948;DHT22;974;52.400;9.818;2022-12-20T04:14:54;7.30;99.90
1948;DHT22;974;52.400;9.818;2022-12-20T04:17:20;7.30;99.90
1948;DHT22;974;52.400;9.818;2022-12-20T04:19:45;7.30;99.90
1948;DHT22;974;52.400;9.818;2022-12-20T04:22:11;7.30;99.90
1948;DHT22;974;52.400;9.818;2022-12-20T04:24:37;7.40;99.90
1948;DHT22;974;52.400;9.818;2022-12-20T04:27:02;7.40;99.90
1948;DHT22;974;52.400;9.818;2022-12-20T04:29:28;7.30;99.90
1948;DHT22;974;52.400;9.818;2022-12-20T04:31:54;7.40;99.90
1948;DHT22;974;52.400;9.818;2022-12-20T04:34:19;7.40;99.90
1948;DHT22;974;52.400;9.818;2022-12-20T04:36:45;7.50;99.90
1948;DHT22;974;52.400;9.818;2022-12-20T04:39:10;7.50;99.90
1948;DHT22;974;52.400;9.818;2022-12-20T04:41:36;7.50;99.90
1948;DHT22;974;52.400;9.818;2022-12-20T04:44:01;7.60;99.90
1948;DHT22;974;52.400;9.818;2022-12-20T04:46:27;7.60;99.90
1948;DHT22;974;52.400;9.818;2022-12-20T04:48:53;7.60;99.90
1948;DHT22;974;52.400;9.818;2022-12-20T04:51:18;7.50;99.90
1948;DHT22;974;52.400;9.818;2022-12-20T04:53:44;7.60;99.90
1948;DHT22;974;52.400;9.818;2022-12-20T04:56:17;7.60;99.90
1948;DHT22;974;52.400;9.818;2022-12-20T04:58:43;7.60;99.90
1948;DHT22;974;52.400;9.818;2022-12-20T05:01:09;7.60;99.90
1948;DHT22;974;52.400;9.818;2022-12-20T05:03:35;7.70;99.90
1948;DHT22;974;52.400;9.818;2022-12-20T05:06:00;7.70;99.90
1948;DHT22;974;52.400;9.818;2022-12-20T05:08:26;7.70;99.90
1948;DHT22;974;52.400;9.818;2022-12-20T05:10:51;7.70;99.90
1948;DHT22;974;52.400;9.818;2022-12-20T05:13:17;7.70;99.90
1948;DHT22;974;52.400;9.818;2022-12-20T05:15:43;7.80;99.90
1948;DHT22;974;52.400;9.818;2022-12-20T05:18:09;7.80;99.90
1948;DHT22;974;52.400;9.818;2022-12-20T05:20:35;7.80;99.90
1948;DHT22;974;52.400;9.818;2022-12-20T05:23:00;7.80;99.90
1948;DHT22;974;52.400;9.818;2022-12-20T05:25:47;7.80;99.90
1948;DHT22;974;52.400;9.818;2022-12-20T05:28:33;7.80;99.90
1948;DHT22;974;52.400;9.818;2022-12-20T05:30:59;7.80;99.90
1948;DHT22;974;52.400;9.818;2022-12-20T05:33:26;7.90;99.90
1948;DHT22;974;52.400;9.818;2022-12-20T05:35:51;7.80;99.90
1948;DHT22;974;52.400;9.818;2022-12-20T05:38:17;7.90;99.90
1948;DHT22;974;52.400;9.818;2022-12-20T05:40:43;7.90;99.90
1948;DHT22;974;52.400;9.818;2022-12-20T05:43:08;7.90;99.90
1948;DHT22;974;52.400;9.818;2022-12-20T05:45:34;7.90;99.90
1948;DHT22;974;52.400;9.818;2022-12-20T05:48:00;7.90;99.90
1948;DHT22;974;52.400;9.818;2022-12-20T05:50:26;7.90;99.90
1948;DHT22;974;52.400;9.818;2022-12-20T05:52:51;7.90;99.90
1948;DHT22;974;52.400;9.818;2022-12-20T05:55:17;7.80;99.90
1948;DHT22;974;52.400;9.818;2022-12-20T05:57:42;7.80;99.90
1948;DHT22;974;52.400;9.818;2022-12-20T06:00:09;7.90;99.90
1948;DHT22;974;52.400;9.818;2022-12-20T06:02:35;7.90;99.90
1948;DHT22;974;52.400;9.818;2022-12-20T06:05:00;7.90;99.90
1948;DHT22;974;52.400;9.818;2022-12-20T06:07:27;7.80;99.90
1948;DHT22;974;52.400;9.818;2022-12-20T06:09:56;7.80;99.90
1948;DHT22;974;52.400;9.818;2022-12-20T06:12:22;7.90;99.90
1948;DHT22;974;52.400;9.818;2022-12-20T06:14:47;7.90;99.90
1948;DHT22;974;52.400;9.818;2022-12-20T06:17:13;7.90;99.90
1948;DHT22;974;52.400;9.818;2022-12-20T06:19:39;7.90;99.90
1948;DHT22;974;52.400;9.818;2022-12-20T06:22:06;7.90;99.90
1948;DHT22;974;52.400;9.818;2022-12-20T06:24:33;7.90;99.90
1948;DHT22;974;52.400;9.818;2022-12-20T06:26:58;7.90;99.90
1948;DHT22;974;52.400;9.818;2022-12-20T06:29:24;7.90;99.90
1948;DHT22;974;52.400;9.818;2022-12-20T06:31:49;7.90;99.90
1948;DHT22;974;52.400;9.818;2022-12-20T06:34:15;8.00;99.90
1948;DHT22;974;52.400;9.818;2022-12-20T06:36:41;8.00;99.90
1948;DHT22;974;52.400;9.818;2022-12-20T06:39:06;8.00;99.90
1948;DHT22;974;52.400;9.818;2022-12-20T06:41:34;8.00;99.90
1948;DHT22;974;52.400;9.818;2022-12-20T06:43:59;8.00;99.90
1948;DHT22;974;52.400;9.818;2022-12-20T06:46:25;8.00;99.90
1948;DHT22;974;52.400;9.818;2022-12-20T06:48:52;8.00;99.90
1948;DHT22;974;52.400;9.818;2022-12-20T06:51:17;8.00;99.90
1948;DHT22;974;52.400;9.818;2022-12-20T06:53:43;8.00;99.90
1948;DHT22;974;52.400;9.818;2022-12-20T06:56:08;8.00;99.90
1948;DHT22;974;52.400;9.818;2022-12-20T06:58:34;8.00;99.90
1948;DHT22;974;52.400;9.818;2022-12-20T07:01:00;8.00;99.90
1948;DHT22;974;52.400;9.818;2022-12-20T07:03:26;8.00;99.90
1948;DHT22;974;52.400;9.818;2022-12-20T07:05:51;8.00;99.90
1948;DHT22;974;52.400;9.818;2022-12-20T07:08:18;8.00;99.90
1948;DHT22;974;52.400;9.818;2022-12-20T07:10:44;8.10;99.90
1948;DHT22;974;52.400;9.818;2022-12-20T07:13:09;8.10;99.90
1948;DHT22;974;52.400;9.818;2022-12-20T07:15:35;8.10;99.90
1948;DHT22;974;52.400;9.818;2022-12-20T07:18:01;8.10;99.90
1948;DHT22;974;52.400;9.818;2022-12-20T07:20:27;8.10;99.90
1948;DHT22;974;52.400;9.818;2022-12-20T07:22:53;8.10;99.90
1948;DHT22;974;52.400;9.818;2022-12-20T07:25:18;8.10;99.90
1948;DHT22;974;52.400;9.818;2022-12-20T07:27:47;8.20;99.90
1948;DHT22;974;52.400;9.818;2022-12-20T07:30:14;8.10;99.90
1948;DHT22;974;52.400;9.818;2022-12-20T07:32:40;8.20;99.90
1948;DHT22;974;52.400;9.818;2022-12-20T07:35:06;8.20;99.90
1948;DHT22;974;52.400;9.818;2022-12-20T07:37:31;8.20;99.90
1948;DHT22;974;52.400;9.818;2022-12-20T07:39:57;8.20;99.90
1948;DHT22;974;52.400;9.818;2022-12-20T07:42:22;8.10;99.90
1948;DHT22;974;52.400;9.818;2022-12-20T07:44:48;8.10;99.90
1948;DHT22;974;52.400;9.818;2022-12-20T07:47:13;8.20;99.90
1948;DHT22;974;52.400;9.818;2022-12-20T07:49:39;8.20;99.90
1948;DHT22;974;52.400;9.818;2022-12-20T07:52:05;8.20;99.90
1948;DHT22;974;52.400;9.818;2022-12-20T07:54:40;8.20;99.90
1948;DHT22;974;52.400;9.818;2022-12-20T07:57:13;8.20;99.90
1948;DHT22;974;52.400;9.818;2022-12-20T07:59:42;8.30;99.90
1948;DHT22;974;52.400;9.818;2022-12-20T08:02:16;8.30;99.90
1948;DHT22;974;52.400;9.818;2022-12-20T08:04:43;8.20;99.90
1948;DHT22;974;52.400;9.818;2022-12-20T08:07:09;8.20;99.90
1948;DHT22;974;52.400;9.818;2022-12-20T08:09:38;8.30;99.90
1948;DHT22;974;52.400;9.818;2022-12-20T08:12:06;8.30;99.90
1948;DHT22;974;52.400;9.818;2022-12-20T08:14:33;8.30;99.90
1948;DHT22;974;52.400;9.818;2022-12-20T08:16:58;8.30;99.90
1948;DHT22;974;52.400;9.818;2022-12-20T08:19:24;8.30;99.90
1948;DHT22;974;52.400;9.818;2022-12-20T08:21:50;8.30;99.90
1948;DHT22;974;52.400;9.818;2022-12-20T08:24:15;8.40;99.90
1948;DHT22;974;52.400;9.818;2022-12-20T08:26:41;8.40;99.90
1948;DHT22;974;52.400;9.818;2022-12-20T08:29:07;8.40;99.90
1948;DHT22;974;52.400;9.818;2022-12-20T08:31:36;8.40;99.90
1948;DHT22;974;52.400;9.818;2022-12-20T08:34:02;8.40;99.90
1948;DHT22;974;52.400;9.818;2022-12-20T08:36:27;8.40;99.90
1948;DHT22;974;52.400;9.818;2022-12-20T08:38:53;8.40;99.90
1948;DHT22;974;52.400;9.818;2022-12-20T08:41:18;8.50;99.90
1948;DHT22;974;52.400;9.818;2022-12-20T08:43:44;8.50;99.90
1948;DHT22;974;52.400;9.818;2022-12-20T08:46:10;8.50;99.90
1948;DHT22;974;52.400;9.818;2022-12-20T08:48:39;8.50;99.90
1948;DHT22;974;52.400;9.818;2022-12-20T08:51:09;8.60;99.90
1948;DHT22;974;52.400;9.818;2022-12-20T08:53:35;8.60;99.90
1948;DHT22;974;52.400;9.818;2022-12-20T08:56:09;8.60;99.90
1948;DHT22;974;52.400;9.818;2022-12-20T08:58:36;8.60;99.90
1948;DHT22;974;52.400;9.818;2022-12-20T09:01:04;8.70;99.90
1948;DHT22;974;52.400;9.818;2022-12-20T09:03:31;8.70;99.90
1948;DHT22;974;52.400;9.818;2022-12-20T09:05:58;8.70;99.90
1948;DHT22;974;52.400;9.818;2022-12-20T09:08:24;8.60;99.90
1948;DHT22;974;52.400;9.818;2022-12-20T09:10:51;8.70;99.90
1948;DHT22;974;52.400;9.818;2022-12-20T09:13:17;8.70;99.90
1948;DHT22;974;52.400;9.818;2022-12-20T09:15:43;8.70;99.90
1948;DHT22;974;52.400;9.818;2022-12-20T09:18:10;8.70;99.90
1948;DHT22;974;52.400;9.818;2022-12-20T09:20:41;8.70;99.90
1948;DHT22;974;52.400;9.818;2022-12-20T09:23:07;8.80;99.90
1948;DHT22;974;52.400;9.818;2022-12-20T09:25:32;8.80;99.90
1948;DHT22;974;52.400;9.818;2022-12-20T09:27:58;8.80;99.90
1948;DHT22;974;52.400;9.818;2022-12-20T09:30:23;8.80;99.90
1948;DHT22;974;52.400;9.818;2022-12-20T09:32:49;8.80;99.90
1948;DHT22;974;52.400;9.818;2022-12-20T09:35:14;8.80;99.90
1948;DHT22;974;52.400;9.818;2022-12-20T09:37:40;8.80;99.90
1948;DHT22;974;52.400;9.818;2022-12-20T09:40:08;8.90;99.90
1948;DHT22;974;52.400;9.818;2022-12-20T09:42:35;8.90;99.90
1948;DHT22;974;52.400;9.818;2022-12-20T09:45:10;9.00;99.90
1948;DHT22;974;52.400;9.818;2022-12-20T09:47:37;8.90;99.90
1948;DHT22;974;52.400;9.818;2022-12-20T09:50:04;9.00;99.90
1948;DHT22;974;52.400;9.818;2022-12-20T09:52:42;9.00;99.90
1948;DHT22;974;52.400;9.818;2022-12-20T09:55:40;9.10;99.90
1948;DHT22;974;52.400;9.818;2022-12-20T09:58:15;9.10;99.90
1948;DHT22;974;52.400;9.818;2022-12-20T10:00:47;9.20;99.90
1948;DHT22;974;52.400;9.818;2022-12-20T10:03:43;9.20;99.90
1948;DHT22;974;52.400;9.818;2022-12-20T10:09:01;9.30;99.90
1948;DHT22;974;52.400;9.818;2022-12-20T10:16:44;9.30;99.90
1948;DHT22;974;52.400;9.818;2022-12-20T10:22:24;9.30;99.90
1948;DHT22;974;52.400;9.818;2022-12-20T10:27:23;9.40;99.90
1948;DHT22;974;52.400;9.818;2022-12-20T10:29:49;9.50;99.90
1948;DHT22;974;52.400;9.818;2022-12-20T10:32:18;9.50;99.90
1948;DHT22;974;52.400;9.818;2022-12-20T10:35:27;9.50;99.90
1948;DHT22;974;52.400;9.818;2022-12-20T10:38:08;9.50;99.90
1948;DHT22;974;52.400;9.818;2022-12-20T10:40:59;9.50;99.90
1948;DHT22;974;52.400;9.818;2022-12-20T10:43:25;9.60;99.90
1948;DHT22;974;52.400;9.818;2022-12-20T10:48:36;9.60;99.90
1948;DHT22;974;52.400;9.818;2022-12-20T10:53:29;9.70;99.90
1948;DHT22;974;52.400;9.818;2022-12-20T10:56:11;9.70;99.90
1948;DHT22;974;52.400;9.818;2022-12-20T10:58:37;9.70;99.90
1948;DHT22;974;52.400;9.818;2022-12-20T11:01:11;9.70;99.90
1948;DHT22;974;52.400;9.818;2022-12-20T11:06:25;9.70;99.90
1948;DHT22;974;52.400;9.818;2022-12-20T11:08:52;9.70;99.90
1948;DHT22;974;52.400;9.818;2022-12-20T11:11:20;9.70;99.90
1948;DHT22;974;52.400;9.818;2022-12-20T11:13:47;9.80;99.90
1948;DHT22;974;52.400;9.818;2022-12-20T11:16:27;9.80;99.90
1948;DHT22;974;52.400;9.818;2022-12-20T11:19:04;9.80;99.90
1948;DHT22;974;52.400;9.818;2022-12-20T11:21:53;9.90;99.90
1948;DHT22;974;52.400;9.818;2022-12-20T11:24:29;9.90;99.90
1948;DHT22;974;52.400;9.818;2022-12-20T11:27:03;9.90;99.90
1948;DHT22;974;52.400;9.818;2022-12-20T11:30:06;10.00;99.90
1948;DHT22;974;52.400;9.818;2022-12-20T11:33:01;10.00;99.90
1948;DHT22;974;52.400;9.818;2022-12-20T11:36:01;10.10;99.90
1948;DHT22;974;52.400;9.818;2022-12-20T11:38:43;10.20;99.90
1948;DHT22;974;52.400;9.818;2022-12-20T11:41:33;10.10;99.90
1948;DHT22;974;52.400;9.818;2022-12-20T11:55:40;10.20;99.90
1948;DHT22;974;52.400;9.818;2022-12-20T11:58:25;10.20;99.90
1948;DHT22;974;52.400;9.818;2022-12-20T12:00:59;10.20;99.90
1948;DHT22;974;52.400;9.818;2022-12-20T12:03:34;10.20;99.90
1948;DHT22;974;52.400;9.818;2022-12-20T12:06:10;10.20;99.90
1948;DHT22;974;52.400;9.818;2022-12-20T12:09:21;10.20;99.90
1948;DHT22;974;52.400;9.818;2022-12-20T12:11:44;10.10;99.90
1948;DHT22;974;52.400;9.818;2022-12-20T12:14:21;10.10;99.90
1948;DHT22;974;52.400;9.818;2022-12-20T12:16:55;10.10;99.90
1948;DHT22;974;52.400;9.818;2022-12-20T12:19:23;10.10;99.90
1948;DHT22;974;52.400;9.818;2022-12-20T12:22:00;10.10;99.90
1948;DHT22;974;52.400;9.818;2022-12-20T12:24:39;10.10;99.90
1948;DHT22;974;52.400;9.818;2022-12-20T12:27:22;10.10;99.90
1948;DHT22;974;52.400;9.818;2022-12-20T12:29:49;10.10;99.90
1948;DHT22;974;52.400;9.818;2022-12-20T12:34:59;10.10;99.90
1948;DHT22;974;52.400;9.818;2022-12-20T12:43:12;10.10;99.90
1948;DHT22;974;52.400;9.818;2022-12-20T12:45:47;10.10;99.90
1948;DHT22;974;52.400;9.818;2022-12-20T12:48:21;10.10;99.90
1948;DHT22;974;52.400;9.818;2022-12-20T12:50:49;10.10;99.90
1948;DHT22;974;52.400;9.818;2022-12-20T12:53:30;10.10;99.90
1948;DHT22;974;52.400;9.818;2022-12-20T12:55:57;10.10;99.90
1948;DHT22;974;52.400;9.818;2022-12-20T13:00:57;10.10;99.90
1948;DHT22;974;52.400;9.818;2022-12-20T13:11:33;10.10;99.90
1948;DHT22;974;52.400;9.818;2022-12-20T13:27:23;10.10;99.90
1948;DHT22;974;52.400;9.818;2022-12-20T13:51:04;10.20;99.90
1948;DHT22;974;52.400;9.818;2022-12-20T13:53:32;10.20;99.90
1948;DHT22;974;52.400;9.818;2022-12-20T13:55:58;10.20;99.90
1948;DHT22;974;52.400;9.818;2022-12-20T13:58:45;10.20;99.90
1948;DHT22;974;52.400;9.818;2022-12-20T14:01:12;10.20;99.90
1948;DHT22;974;52.400;9.818;2022-12-20T14:03:44;10.20;99.90
1948;DHT22;974;52.400;9.818;2022-12-20T14:06:13;10.20;99.90
1948;DHT22;974;52.400;9.818;2022-12-20T14:08:42;10.10;99.90
1948;DHT22;974;52.400;9.818;2022-12-20T14:11:09;10.10;99.90
1948;DHT22;974;52.400;9.818;2022-12-20T14:13:35;10.10;99.90
1948;DHT22;974;52.400;9.818;2022-12-20T14:16:15;10.10;99.90
1948;DHT22;974;52.400;9.818;2022-12-20T14:18:41;10.10;99.90
1948;DHT22;974;52.400;9.818;2022-12-20T14:21:12;10.10;99.90
1948;DHT22;974;52.400;9.818;2022-12-20T14:23:40;10.10;99.90
1948;DHT22;974;52.400;9.818;2022-12-20T14:26:21;10.10;99.90
1948;DHT22;974;52.400;9.818;2022-12-20T14:28:59;10.00;99.90
1948;DHT22;974;52.400;9.818;2022-12-20T14:36:31;10.10;99.90
1948;DHT22;974;52.400;9.818;2022-12-20T14:38:56;10.00;99.90
1948;DHT22;974;52.400;9.818;2022-12-20T14:41:29;10.00;99.90
1948;DHT22;974;52.400;9.818;2022-12-20T14:43:58;10.10;99.90
1948;DHT22;974;52.400;9.818;2022-12-20T14:46:25;10.10;99.90
1948;DHT22;974;52.400;9.818;2022-12-20T14:49:28;10.00;99.90
1948;DHT22;974;52.400;9.818;2022-12-20T14:54:31;10.00;99.90
1948;DHT22;974;52.400;9.818;2022-12-20T14:56:56;10.00;99.90
1948;DHT22;974;52.400;9.818;2022-12-20T14:59:25;10.00;99.90
1948;DHT22;974;52.400;9.818;2022-12-20T15:01:51;10.00;99.90
1948;DHT22;974;52.400;9.818;2022-12-20T15:04:30;10.00;99.90
1948;DHT22;974;52.400;9.818;2022-12-20T15:06:58;10.00;99.90
1948;DHT22;974;52.400;9.818;2022-12-20T15:09:23;10.00;99.90
1948;DHT22;974;52.400;9.818;2022-12-20T15:11:49;10.00;99.90
1948;DHT22;974;52.400;9.818;2022-12-20T15:14:35;10.00;99.90
1948;DHT22;974;52.400;9.818;2022-12-20T15:17:12;10.10;99.90
1948;DHT22;974;52.400;9.818;2022-12-20T15:19:38;10.10;99.90
1948;DHT22;974;52.400;9.818;2022-12-20T15:22:04;10.10;99.90
1948;DHT22;974;52.400;9.818;2022-12-20T15:24:31;10.00;99.90
1948;DHT22;974;52.400;9.818;2022-12-20T15:26:56;10.10;99.90
1948;DHT22;974;52.400;9.818;2022-12-20T15:29:25;10.00;99.90
1948;DHT22;974;52.400;9.818;2022-12-20T15:32:16;10.00;99.90
1948;DHT22;974;52.400;9.818;2022-12-20T15:34:45;10.00;99.90
1948;DHT22;974;52.400;9.818;2022-12-20T15:37:14;10.00;99.90
1948;DHT22;974;52.400;9.818;2022-12-20T15:39:40;10.00;99.90
1948;DHT22;974;52.400;9.818;2022-12-20T15:42:08;10.00;99.90
1948;DHT22;974;52.400;9.818;2022-12-20T15:44:36;9.90;99.90
1948;DHT22;974;52.400;9.818;2022-12-20T15:47:02;9.90;99.90
1948;DHT22;974;52.400;9.818;2022-12-20T15:49:29;9.90;99.90
1948;DHT22;974;52.400;9.818;2022-12-20T15:51:55;9.90;99.90
1948;DHT22;974;52.400;9.818;2022-12-20T15:54:28;10.00;99.90
1948;DHT22;974;52.400;9.818;2022-12-20T15:56:55;10.00;99.90
1948;DHT22;974;52.400;9.818;2022-12-20T15:59:21;10.00;99.90
1948;DHT22;974;52.400;9.818;2022-12-20T16:01:47;10.00;99.90
1948;DHT22;974;52.400;9.818;2022-12-20T16:04:16;10.00;99.90
1948;DHT22;974;52.400;9.818;2022-12-20T16:06:43;10.00;99.90
1948;DHT22;974;52.400;9.818;2022-12-20T16:09:09;10.00;99.90
1948;DHT22;974;52.400;9.818;2022-12-20T16:11:35;10.00;99.90
1948;DHT22;974;52.400;9.818;2022-12-20T16:14:00;10.00;99.90
1948;DHT22;974;52.400;9.818;2022-12-20T16:16:34;10.00;99.90
1948;DHT22;974;52.400;9.818;2022-12-20T16:19:00;10.10;99.90
1948;DHT22;974;52.400;9.818;2022-12-20T16:21:33;10.20;99.90
1948;DHT22;974;52.400;9.818;2022-12-20T16:24:00;10.20;99.90
1948;DHT22;974;52.400;9.818;2022-12-20T16:26:26;10.20;99.90
1948;DHT22;974;52.400;9.818;2022-12-20T16:28:53;10.20;99.90
1948;DHT22;974;52.400;9.818;2022-12-20T16:31:29;10.30;99.90
1948;DHT22;974;52.400;9.818;2022-12-20T16:33:56;10.30;99.90
1948;DHT22;974;52.400;9.818;2022-12-20T16:36:22;10.30;99.90
1948;DHT22;974;52.400;9.818;2022-12-20T16:38:48;10.30;99.90
1948;DHT22;974;52.400;9.818;2022-12-20T16:41:19;10.30;99.90
1948;DHT22;974;52.400;9.818;2022-12-20T16:43:46;10.30;99.90
1948;DHT22;974;52.400;9.818;2022-12-20T16:46:17;10.30;99.90
1948;DHT22;974;52.400;9.818;2022-12-20T16:48:43;10.30;99.90
1948;DHT22;974;52.400;9.818;2022-12-20T16:51:29;10.30;99.90
1948;DHT22;974;52.400;9.818;2022-12-20T16:54:01;10.30;99.90
1948;DHT22;974;52.400;9.818;2022-12-20T16:56:27;10.30;99.90
1948;DHT22;974;52.400;9.818;2022-12-20T16:58:53;10.30;99.90
1948;DHT22;974;52.400;9.818;2022-12-20T17:01:22;10.30;99.90
1948;DHT22;974;52.400;9.818;2022-12-20T17:03:49;10.20;99.90
1948;DHT22;974;52.400;9.818;2022-12-20T17:06:15;10.20;99.90
1948;DHT22;974;52.400;9.818;2022-12-20T17:08:41;10.20;99.90
1948;DHT22;974;52.400;9.818;2022-12-20T17:11:17;10.10;99.90
1948;DHT22;974;52.400;9.818;2022-12-20T17:13:47;10.10;99.90
1948;DHT22;974;52.400;9.818;2022-12-20T17:16:14;10.10;99.90
1948;DHT22;974;52.400;9.818;2022-12-20T17:18:44;10.10;99.90
1948;DHT22;974;52.400;9.818;2022-12-20T17:21:34;10.10;99.90
1948;DHT22;974;52.400;9.818;2022-12-20T17:24:01;10.10;99.90
1948;DHT22;974;52.400;9.818;2022-12-20T17:26:27;10.00;99.90
1948;DHT22;974;52.400;9.818;2022-12-20T17:28:55;10.00;99.90
1948;DHT22;974;52.400;9.818;2022-12-20T17:31:30;10.00;99.90
1948;DHT22;974;52.400;9.818;2022-12-20T17:34:01;10.00;99.90
1948;DHT22;974;52.400;9.818;2022-12-20T17:36:27;10.00;99.90
1948;DHT22;974;52.400;9.818;2022-12-20T17:38:53;10.00;99.90
1948;DHT22;974;52.400;9.818;2022-12-20T17:43:47;9.90;99.90
1948;DHT22;974;52.400;9.818;2022-12-20T17:46:12;9.90;99.90
1948;DHT22;974;52.400;9.818;2022-12-20T17:48:38;9.90;99.90
1948;DHT22;974;52.400;9.818;2022-12-20T17:51:15;9.80;99.90
1948;DHT22;974;52.400;9.818;2022-12-20T17:53:42;9.80;99.90
1948;DHT22;974;52.400;9.818;2022-12-20T17:56:14;9.80;99.90
1948;DHT22;974;52.400;9.818;2022-12-20T17:58:43;9.80;99.90
1948;DHT22;974;52.400;9.818;2022-12-20T18:01:25;9.80;99.90
1948;DHT22;974;52.400;9.818;2022-12-20T18:03:53;9.80;99.90
1948;DHT22;974;52.400;9.818;2022-12-20T18:06:19;9.80;99.90
1948;DHT22;974;52.400;9.818;2022-12-20T18:08:55;9.70;99.90
1948;DHT22;974;52.400;9.818;2022-12-20T18:11:22;9.70;99.90
1948;DHT22;974;52.400;9.818;2022-12-20T18:13:49;9.70;99.90
1948;DHT22;974;52.400;9.818;2022-12-20T18:16:21;9.70;99.90
1948;DHT22;974;52.400;9.818;2022-12-20T18:18:47;9.70;99.90
1948;DHT22;974;52.400;9.818;2022-12-20T18:21:15;9.70;99.90
1948;DHT22;974;52.400;9.818;2022-12-20T18:23:44;9.60;99.90
1948;DHT22;974;52.400;9.818;2022-12-20T18:26:16;9.60;99.90
1948;DHT22;974;52.400;9.818;2022-12-20T18:28:44;9.60;99.90
1948;DHT22;974;52.400;9.818;2022-12-20T18:31:13;9.50;99.90
1948;DHT22;974;52.400;9.818;2022-12-20T18:33:39;9.50;99.90